createdAt,value
2022-12-19T00:01:18.737Z,82.59
2022-12-19T00:04:35.598Z,84.23
2022-12-19T00:07:59.702Z,83.97
2022-12-19T00:11:19.727Z,84.22
2022-12-19T00:14:41.609Z,85.92
2022-12-19T00:18:04.755Z,85.42
2022-12-19T00:21:28.630Z,86.22
2022-12-19T00:24:49.687Z,85.95
2022-12-19T00:28:12.614Z,85.63
2022-12-19T00:31:23.830Z,86.00
2022-12-19T00:34:46.610Z,85.31
2022-12-19T00:38:14.564Z,85.62
2022-12-19T00:41:41.734Z,85.39
2022-12-19T00:44:55.700Z,86.28
2022-12-19T00:48:21.539Z,85.80
2022-12-19T00:51:40.803Z,86.61
2022-12-19T00:55:02.902Z,86.93
2022-12-19T00:58:19.740Z,87.02
2022-12-19T01:01:30.873Z,87.20
2022-12-19T01:04:39.858Z,86.73
2022-12-19T01:07:52.641Z,87.17
2022-12-19T01:11:12.271Z,86.92
2022-12-19T01:14:28.553Z,85.98
2022-12-19T01:17:49.471Z,86.04
2022-12-19T01:21:01.127Z,86.71
2022-12-19T01:24:10.512Z,86.52
2022-12-19T01:27:20.812Z,85.44
2022-12-19T01:30:24.733Z,85.14
2022-12-19T01:33:43.075Z,85.11
2022-12-19T01:36:48.914Z,85.04
2022-12-19T01:39:52.596Z,86.25
2022-12-19T01:43:15.678Z,86.05
2022-12-19T01:46:40.437Z,85.58
2022-12-19T01:49:45.431Z,84.59
2022-12-19T01:52:53.092Z,85.14
2022-12-19T01:56:20.849Z,84.88
2022-12-19T01:59:43.569Z,85.54
2022-12-19T02:02:58.027Z,85.21
2022-12-19T02:06:08.999Z,85.61
2022-12-19T02:09:28.636Z,85.06
2022-12-19T02:12:48.520Z,85.37
2022-12-19T02:16:34.318Z,86.56
2022-12-19T02:20:13.592Z,85.56
2022-12-19T02:24:00.602Z,85.50
2022-12-19T02:27:54.673Z,86.55
2022-12-19T02:31:34.282Z,87.24
2022-12-19T02:35:18.258Z,86.08
2022-12-19T02:38:50.230Z,85.81
2022-12-19T02:42:20.503Z,86.30
2022-12-19T02:45:42.742Z,87.13
2022-12-19T02:48:59.440Z,86.33
2022-12-19T02:52:26.494Z,85.25
2022-12-19T02:55:57.586Z,86.25
2022-12-19T02:59:21.684Z,87.49
2022-12-19T03:02:49.302Z,85.88
2022-12-19T03:06:18.933Z,86.18
2022-12-19T03:09:46.831Z,84.74
2022-12-19T03:13:34.240Z,84.52
2022-12-19T03:16:52.479Z,85.22
2022-12-19T03:20:15.957Z,84.54
2022-12-19T03:23:37.911Z,84.43
2022-12-19T03:27:03.383Z,85.29
2022-12-19T03:30:20.949Z,84.47
2022-12-19T03:33:42.128Z,84.90
2022-12-19T03:37:10.108Z,84.63
2022-12-19T03:40:28.062Z,84.09
2022-12-19T03:43:50.984Z,83.42
2022-12-19T03:47:17.308Z,83.35
2022-12-19T03:50:42.461Z,83.75
2022-12-19T03:54:14.230Z,84.05
2022-12-19T03:57:54.609Z,83.14
2022-12-19T04:00:58.666Z,83.78
2022-12-19T04:04:07.897Z,83.69
2022-12-19T04:07:28.185Z,83.60
2022-12-19T04:10:58.165Z,83.27
2022-12-19T04:14:20.173Z,83.84
2022-12-19T04:18:01.260Z,83.46
2022-12-19T04:21:14.382Z,83.21
2022-12-19T04:24:32.744Z,83.39
2022-12-19T04:27:55.583Z,82.96
2022-12-19T04:30:59.321Z,83.66
2022-12-19T04:34:23.116Z,83.64
2022-12-19T04:37:50.102Z,82.58
2022-12-19T04:40:53.187Z,83.33
2022-12-19T04:43:56.145Z,82.60
2022-12-19T04:47:09.648Z,84.19
2022-12-19T04:50:29.515Z,83.32
2022-12-19T04:53:42.426Z,83.28
2022-12-19T04:56:53.388Z,83.09
2022-12-19T04:59:58.497Z,83.43
2022-12-19T05:03:05.650Z,83.08
2022-12-19T05:06:23.141Z,82.97
2022-12-19T05:09:46.035Z,82.93
2022-12-19T05:13:03.773Z,82.60
2022-12-19T05:16:15.169Z,82.40
2022-12-19T05:19:22.148Z,83.95
2022-12-19T05:22:35.875Z,83.03
2022-12-19T05:26:23.267Z,83.98
2022-12-19T05:29:27.088Z,84.18
2022-12-19T05:32:38.525Z,84.24
2022-12-19T05:35:59.658Z,82.70
2022-12-19T05:39:20.452Z,82.69
2022-12-19T05:42:36.907Z,82.63
2022-12-19T05:45:57.726Z,83.17
2022-12-19T05:49:18.421Z,82.86
2022-12-19T05:52:42.743Z,82.99
2022-12-19T05:56:15.732Z,83.54
2022-12-19T05:59:35.602Z,83.12
2022-12-19T06:02:58.774Z,82.74
2022-12-19T06:06:26.270Z,82.83
2022-12-19T06:09:43.163Z,83.35
2022-12-19T06:12:53.531Z,83.51
2022-12-19T06:15:59.925Z,83.64
2022-12-19T06:19:22.697Z,82.90
2022-12-19T06:22:39.625Z,83.45
2022-12-19T06:25:49.359Z,84.17
2022-12-19T06:29:14.603Z,83.80
2022-12-19T06:32:38.385Z,83.83
2022-12-19T06:35:57.467Z,83.06
2022-12-19T06:39:20.300Z,83.42
2022-12-19T06:42:36.949Z,82.60
2022-12-19T06:45:54.750Z,82.86
2022-12-19T06:49:40.990Z,83.19
2022-12-19T06:53:15.410Z,82.55
2022-12-19T06:56:20.378Z,83.60
2022-12-19T06:59:26.932Z,83.46
2022-12-19T07:02:42.712Z,83.11
2022-12-19T07:06:04.750Z,83.84
2022-12-19T07:09:40.573Z,82.96
2022-12-19T07:12:54.589Z,83.54
2022-12-19T07:16:14.581Z,83.16
2022-12-19T07:19:26.293Z,83.69
2022-12-19T07:22:35.100Z,83.94
2022-12-19T07:25:42.363Z,83.33
2022-12-19T07:28:49.384Z,83.27
2022-12-19T07:32:03.748Z,81.27
2022-12-19T07:35:10.324Z,81.60
2022-12-19T07:38:14.937Z,80.71
2022-12-19T07:41:37.468Z,79.28
2022-12-19T07:45:43.854Z,78.69
2022-12-19T07:49:01.078Z,77.68
2022-12-19T07:52:16.038Z,76.52
2022-12-19T07:55:25.779Z,77.48
2022-12-19T07:58:31.891Z,76.68
2022-12-19T08:01:52.420Z,76.66
2022-12-19T08:05:02.474Z,76.17
2022-12-19T08:08:05.851Z,75.13
2022-12-19T08:11:14.595Z,74.65
2022-12-19T08:14:30.761Z,74.77
2022-12-19T08:17:38.941Z,73.53
2022-12-19T08:20:48.668Z,72.45
2022-12-19T08:23:56.050Z,71.74
2022-12-19T08:27:09.611Z,71.65
2022-12-19T08:30:32.245Z,71.70
2022-12-19T08:33:45.165Z,71.49
2022-12-19T08:37:09.302Z,71.34
2022-12-19T08:40:31.477Z,71.86
2022-12-19T08:44:57.074Z,71.23
2022-12-19T08:48:33.115Z,71.44
2022-12-19T08:51:48.553Z,71.54
2022-12-19T08:54:56.300Z,72.40
2022-12-19T08:58:13.382Z,71.59
2022-12-19T09:01:29.215Z,71.82
2022-12-19T09:14:21.039Z,70.49
2022-12-19T09:17:37.448Z,70.59
2022-12-19T09:20:58.764Z,70.05
2022-12-19T09:24:21.218Z,71.14
2022-12-19T09:28:01.223Z,70.47
2022-12-19T09:31:10.641Z,70.71
2022-12-19T09:34:17.677Z,70.80
2022-12-19T09:37:21.397Z,70.67
2022-12-19T09:40:29.865Z,70.97
2022-12-19T09:44:01.203Z,70.38
2022-12-19T09:47:23.967Z,68.93
2022-12-19T09:50:44.148Z,69.34
2022-12-19T09:54:13.316Z,68.66
2022-12-19T09:57:37.281Z,69.41
2022-12-19T10:01:03.279Z,69.88
2022-12-19T10:04:13.506Z,69.49
2022-12-19T10:07:48.454Z,68.77
2022-12-19T10:12:42.573Z,68.57
2022-12-19T10:14:56.187Z,68.40
2022-12-19T10:18:32.597Z,68.10
2022-12-19T10:22:39.025Z,67.51
2022-12-19T10:26:15.311Z,65.79
2022-12-19T10:29:38.252Z,65.90
2022-12-19T10:33:20.323Z,65.89
2022-12-19T10:36:48.717Z,65.10
2022-12-19T10:40:27.728Z,64.45
2022-12-19T10:44:35.536Z,65.65
2022-12-19T10:48:15.357Z,64.08
2022-12-19T10:51:28.229Z,64.08
2022-12-19T10:54:41.960Z,63.95
2022-12-19T10:58:01.931Z,64.14
2022-12-19T11:01:29.218Z,64.54
2022-12-19T11:04:50.889Z,65.00
2022-12-19T11:08:14.614Z,64.85
2022-12-19T11:13:09.552Z,63.93
2022-12-19T11:17:24.239Z,63.57
2022-12-19T11:29:17.074Z,64.22
2022-12-19T11:29:34.556Z,65.62
2022-12-19T11:30:26.152Z,64.28
2022-12-19T11:33:18.667Z,64.96
2022-12-19T11:36:39.884Z,64.04
2022-12-19T11:40:10.924Z,63.97
2022-12-19T11:43:45.475Z,64.76
2022-12-19T11:47:32.822Z,65.53
2022-12-19T11:50:50.304Z,64.39
2022-12-19T11:54:31.038Z,64.24
2022-12-19T11:57:39.475Z,64.02
2022-12-19T12:01:02.287Z,63.34
2022-12-19T12:04:31.553Z,64.66
2022-12-19T12:08:52.176Z,63.51
2022-12-19T12:19:33.832Z,64.90
2022-12-19T12:26:38.723Z,64.35
2022-12-19T12:31:08.956Z,64.26
2022-12-19T12:31:43.764Z,64.61
2022-12-19T12:31:55.173Z,65.65
2022-12-19T12:32:04.540Z,64.67
2022-12-19T12:35:45.383Z,65.74
2022-12-19T12:39:10.947Z,66.41
2022-12-19T12:42:56.571Z,65.87
2022-12-19T12:46:45.786Z,66.35
2022-12-19T12:50:17.528Z,66.72
2022-12-19T12:53:35.793Z,66.80
2022-12-19T12:56:55.939Z,66.64
2022-12-19T13:00:30.682Z,66.02
2022-12-19T13:03:46.733Z,66.63
2022-12-19T13:07:08.690Z,67.62
2022-12-19T13:10:31.361Z,67.73
2022-12-19T13:13:58.683Z,68.38
2022-12-19T13:17:06.966Z,68.94
2022-12-19T13:20:32.447Z,69.11
2022-12-19T13:23:47.812Z,69.18
2022-12-19T13:27:07.479Z,68.91
2022-12-19T13:30:29.455Z,69.46
2022-12-19T13:33:56.189Z,69.01
2022-12-19T13:39:48.931Z,69.33
2022-12-19T13:41:01.535Z,69.41
2022-12-19T13:44:09.243Z,67.73
2022-12-19T13:47:23.467Z,68.68
2022-12-19T13:50:44.523Z,68.28
2022-12-19T13:54:00.072Z,68.36
2022-12-19T13:57:09.550Z,69.35
2022-12-19T14:00:18.579Z,69.97
2022-12-19T14:03:32.930Z,69.38
2022-12-19T14:06:53.334Z,69.47
2022-12-19T14:11:33.219Z,69.72
2022-12-19T14:14:23.856Z,69.50
2022-12-19T14:17:34.460Z,70.13
2022-12-19T14:22:04.926Z,70.28
2022-12-19T14:24:17.835Z,70.71
2022-12-19T14:28:19.305Z,70.34
2022-12-19T14:30:59.566Z,71.02
2022-12-19T14:34:47.289Z,71.72
2022-12-19T14:39:19.451Z,71.60
2022-12-19T14:41:09.229Z,71.60
2022-12-19T14:51:42.930Z,72.72
2022-12-19T14:54:00.624Z,72.84
2022-12-19T14:54:40.844Z,71.60
2022-12-19T14:56:16.534Z,71.97
2022-12-19T14:58:53.529Z,72.86
2022-12-19T15:02:32.451Z,72.90
2022-12-19T15:05:56.195Z,72.92
2022-12-19T15:10:58.805Z,73.75
2022-12-19T15:14:54.393Z,73.12
2022-12-19T15:16:46.598Z,73.10
2022-12-19T15:19:55.661Z,73.95
2022-12-19T15:23:05.243Z,73.97
2022-12-19T15:26:19.999Z,74.27
2022-12-19T15:29:26.993Z,74.20
2022-12-19T15:32:47.133Z,74.33
2022-12-19T15:36:07.069Z,74.90
2022-12-19T15:39:24.929Z,75.30
2022-12-19T15:42:32.437Z,75.74
2022-12-19T15:45:39.295Z,76.01
2022-12-19T15:48:45.796Z,75.25
2022-12-19T15:51:50.923Z,75.73
2022-12-19T15:55:04.420Z,76.32
2022-12-19T15:58:12.363Z,76.01
2022-12-19T16:01:25.423Z,75.48
2022-12-19T16:04:31.658Z,75.87
2022-12-19T16:07:35.274Z,76.03
2022-12-19T16:10:40.733Z,76.35
2022-12-19T16:14:00.969Z,76.37
2022-12-19T16:17:37.887Z,75.50
2022-12-19T16:20:54.075Z,75.70
2022-12-19T16:24:07.683Z,76.10
2022-12-19T16:27:37.963Z,76.52
2022-12-19T16:31:05.962Z,76.59
2022-12-19T16:34:17.710Z,75.76
2022-12-19T16:37:40.892Z,75.59
2022-12-19T16:40:58.643Z,75.62
2022-12-19T16:44:24.980Z,75.36
2022-12-19T16:47:58.968Z,75.07
2022-12-19T16:51:19.072Z,75.67
2022-12-19T16:54:41.987Z,75.22
2022-12-19T16:58:07.828Z,74.64
2022-12-19T17:01:28.996Z,76.77
2022-12-19T17:04:31.967Z,74.51
2022-12-19T17:07:54.842Z,74.42
2022-12-19T17:11:34.852Z,74.41
2022-12-19T17:14:58.938Z,74.78
2022-12-19T17:18:20.919Z,74.45
2022-12-19T17:21:23.933Z,74.15
2022-12-19T17:24:30.861Z,74.18
2022-12-19T17:27:33.690Z,74.19
2022-12-19T17:30:54.966Z,74.33
2022-12-19T17:34:14.501Z,74.22
2022-12-19T17:37:37.861Z,74.26
2022-12-19T17:40:56.944Z,73.70
2022-12-19T17:44:24.968Z,73.08
2022-12-19T17:47:54.166Z,73.59
2022-12-19T17:51:14.503Z,73.64
2022-12-19T17:54:25.341Z,73.92
2022-12-19T17:57:47.715Z,73.23
2022-12-19T18:01:24.739Z,73.26
2022-12-19T18:04:28.496Z,73.25
2022-12-19T18:07:51.766Z,75.42
2022-12-19T18:11:30.375Z,74.55
2022-12-19T18:14:51.443Z,72.62
2022-12-19T18:18:07.619Z,73.73
2022-12-19T18:21:24.541Z,74.13
2022-12-19T18:24:34.273Z,74.93
2022-12-19T18:27:44.131Z,74.71
2022-12-19T18:31:00.323Z,75.30
2022-12-19T18:34:20.043Z,72.96
2022-12-19T18:37:35.893Z,73.94
2022-12-19T18:40:52.918Z,73.52
2022-12-19T18:43:58.966Z,72.87
2022-12-19T18:47:05.244Z,74.04
2022-12-19T18:50:24.572Z,73.62
2022-12-19T18:53:38.703Z,74.11
2022-12-19T18:56:48.325Z,75.25
2022-12-19T19:00:04.580Z,75.30
2022-12-19T19:03:38.641Z,74.34
2022-12-19T19:07:06.639Z,74.31
2022-12-19T19:10:30.507Z,75.66
2022-12-19T19:13:55.699Z,74.96
2022-12-19T19:17:16.702Z,75.71
2022-12-19T19:20:36.312Z,75.67
2022-12-19T19:23:59.521Z,74.31
2022-12-19T19:27:19.460Z,73.27
2022-12-19T19:30:40.614Z,75.52
2022-12-19T19:34:08.456Z,73.73
2022-12-19T19:37:22.578Z,73.44
2022-12-19T19:40:38.610Z,74.80
2022-12-19T19:43:58.549Z,74.36
2022-12-19T19:47:23.396Z,74.58
2022-12-19T19:50:43.371Z,75.04
2022-12-19T19:53:50.451Z,74.56
2022-12-19T19:56:57.580Z,74.74
2022-12-19T20:00:16.095Z,75.06
2022-12-19T20:03:37.200Z,75.30
2022-12-19T20:07:00.361Z,74.86
2022-12-19T20:10:25.136Z,74.60
2022-12-19T20:13:35.159Z,74.91
2022-12-19T20:16:58.355Z,74.62
2022-12-19T20:20:28.326Z,74.17
2022-12-19T20:23:51.213Z,74.81
2022-12-19T20:27:14.290Z,74.87
2022-12-19T20:30:36.227Z,75.29
2022-12-19T20:33:58.195Z,76.18
2022-12-19T20:37:21.291Z,75.96
2022-12-19T20:40:43.144Z,76.88
2022-12-19T20:44:05.141Z,77.11
2022-12-19T20:47:28.251Z,77.24
2022-12-19T20:50:51.111Z,76.82
2022-12-19T20:54:14.505Z,76.11
2022-12-19T20:57:35.134Z,75.88
2022-12-19T21:00:57.151Z,76.04
2022-12-19T21:04:19.253Z,76.12
2022-12-19T21:07:42.294Z,76.32
2022-12-19T21:10:52.136Z,75.87
2022-12-19T21:14:15.133Z,74.93
2022-12-19T21:17:49.293Z,75.75
2022-12-19T21:21:12.139Z,75.25
2022-12-19T21:24:33.223Z,74.43
2022-12-19T21:27:49.239Z,74.26
2022-12-19T21:31:15.152Z,74.33
2022-12-19T21:34:31.263Z,75.45
2022-12-19T21:37:50.262Z,74.81
2022-12-19T21:41:18.909Z,75.29
2022-12-19T21:44:38.083Z,75.34
2022-12-19T21:48:02.174Z,75.28
2022-12-19T21:51:23.200Z,75.45
2022-12-19T21:54:39.201Z,76.11
2022-12-19T21:57:46.059Z,75.54
2022-12-19T22:01:07.901Z,75.38
2022-12-19T22:04:21.301Z,74.84
2022-12-19T22:07:35.868Z,74.61
2022-12-19T22:10:51.989Z,75.03
2022-12-19T22:14:13.193Z,74.70
2022-12-19T22:17:28.970Z,75.71
2022-12-19T22:21:03.936Z,76.19
2022-12-19T22:24:26.761Z,77.10
2022-12-19T22:27:42.076Z,77.30
2022-12-19T22:31:03.021Z,76.66
2022-12-19T22:34:27.025Z,77.69
2022-12-19T22:37:47.957Z,78.00
2022-12-19T22:41:18.907Z,77.63
2022-12-19T22:44:40.841Z,77.21
2022-12-19T22:48:02.879Z,77.78
2022-12-19T22:51:26.885Z,77.99
2022-12-19T22:54:43.070Z,77.24
2022-12-19T22:58:02.863Z,78.16
2022-12-19T23:01:21.806Z,78.63
2022-12-19T23:04:44.812Z,78.99
2022-12-19T23:08:17.756Z,78.55
2022-12-19T23:11:41.920Z,77.67
2022-12-19T23:15:03.878Z,77.00
2022-12-19T23:18:24.802Z,76.91
2022-12-19T23:21:47.980Z,77.36
2022-12-19T23:25:08.788Z,76.68
2022-12-19T23:28:31.952Z,76.58
2022-12-19T23:31:55.783Z,76.51
2022-12-19T23:35:15.851Z,76.61
2022-12-19T23:38:35.771Z,76.48
2022-12-19T23:41:55.926Z,76.50
2022-12-19T23:44:58.880Z,76.89
2022-12-19T23:48:06.019Z,77.14
2022-12-19T23:51:22.507Z,76.36
2022-12-19T23:54:43.394Z,76.24
2022-12-19T23:58:09.360Z,76.03
